Time;durP1;ratioP1;P1;durP2;ratioP2;P2;SDS_P1;SDS_P2;PMS_P1;PMS_P2;Temp;Humidity;BMP_temperature;BMP_pressure;BME280_temperature;BME280_humidity;BME280_pressure;Samples;Min_cycle;Max_cycle;Signal;HPM_P1;HPM_P2
2023/02/15 00:01:57;;;;;;;54.72;27.13;;;;;;;;;;5013524;28;20449;-76
2023/02/15 00:04:45;;;;;;;47.13;27.48;;;;;;;;;;5017224;28;20469;-76
2023/02/15 00:07:17;;;;;;;46.97;27.48;;;;;;;;;;5016430;28;20099;-76
2023/02/15 00:09:45;;;;;;;57.75;29.05;;;;;;;;;;5000508;28;20417;-76
2023/02/15 00:12:12;;;;;;;49.85;26.88;;;;;;;;;;5017906;28;20056;-76
2023/02/15 00:14:39;;;;;;;47.83;26.75;;;;;;;;;;4997770;28;20046;-75
2023/02/15 00:17:06;;;;;;;52.63;29.38;;;;;;;;;;5014925;28;20053;-76
2023/02/15 00:19:32;;;;;;;50.47;27.52;;;;;;;;;;5014901;28;20630;-76
2023/02/15 00:21:59;;;;;;;46.92;25.98;;;;;;;;;;5017732;28;20056;-76
2023/02/15 00:24:26;;;;;;;45.47;26.92;;;;;;;;;;4997164;28;20054;-76
2023/02/15 00:26:53;;;;;;;44.05;25.25;;;;;;;;;;5016011;28;20416;-75
2023/02/15 00:29:20;;;;;;;42.95;24.40;;;;;;;;;;5018010;28;20062;-75
2023/02/15 00:31:48;;;;;;;40.95;22.70;;;;;;;;;;5018492;28;20505;-76
2023/02/15 00:34:16;;;;;;;44.35;24.33;;;;;;;;;;5002999;28;20046;-75
2023/02/15 00:36:43;;;;;;;40.25;22.70;;;;;;;;;;5021195;28;20692;-75
2023/02/15 00:39:10;;;;;;;41.05;23.40;;;;;;;;;;5018910;28;20049;-76
2023/02/15 00:41:37;;;;;;;41.42;22.77;;;;;;;;;;5021975;28;20049;-76
2023/02/15 00:44:04;;;;;;;36.55;22.80;;;;;;;;;;5005428;28;20058;-75
2023/02/15 00:46:31;;;;;;;40.83;22.52;;;;;;;;;;5018363;28;20046;-75
2023/02/15 00:48:58;;;;;;;38.13;21.30;;;;;;;;;;5004384;28;20058;-76
2023/02/15 00:51:25;;;;;;;41.33;23.55;;;;;;;;;;5000927;28;20053;-75
2023/02/15 00:53:52;;;;;;;40.92;23.02;;;;;;;;;;5018195;28;20061;-75
2023/02/15 00:56:19;;;;;;;42.03;22.00;;;;;;;;;;5018394;28;20053;-76
2023/02/15 00:58:46;;;;;;;38.80;21.95;;;;;;;;;;5018372;28;20152;-76
2023/02/15 01:01:14;;;;;;;41.15;22.55;;;;;;;;;;5017169;28;20046;-75
2023/02/15 01:03:41;;;;;;;32.33;20.02;;;;;;;;;;5004506;28;20057;-76
2023/02/15 01:06:09;;;;;;;36.55;21.80;;;;;;;;;;5001446;28;20062;-75
2023/02/15 01:08:36;;;;;;;33.65;20.80;;;;;;;;;;5001079;28;20104;-75
2023/02/15 01:11:07;;;;;;;32.95;20.02;;;;;;;;;;4989812;28;20054;-75
2023/02/15 01:13:35;;;;;;;35.17;20.27;;;;;;;;;;5000678;28;20482;-76
2023/02/15 01:16:02;;;;;;;33.78;20.98;;;;;;;;;;5002102;28;20061;-75
2023/02/15 01:18:30;;;;;;;34.70;20.70;;;;;;;;;;5020517;28;20068;-75
2023/02/15 01:20:57;;;;;;;35.40;21.00;;;;;;;;;;5003543;28;20053;-75
2023/02/15 01:23:24;;;;;;;32.45;20.42;;;;;;;;;;5002390;28;20054;-75
2023/02/15 01:25:50;;;;;;;39.17;22.05;;;;;;;;;;5019365;28;20060;-75
2023/02/15 01:28:17;;;;;;;32.60;20.85;;;;;;;;;;5018098;28;20069;-75
2023/02/15 01:30:44;;;;;;;36.08;21.15;;;;;;;;;;5019975;28;20570;-75
2023/02/15 01:33:17;;;;;;;35.90;20.25;;;;;;;;;;5006089;28;20789;-75
2023/02/15 01:35:47;;;;;;;32.53;20.42;;;;;;;;;;5022744;28;20054;-74
2023/02/15 01:38:14;;;;;;;34.50;20.10;;;;;;;;;;5020314;28;20057;-75
2023/02/15 01:40:41;;;;;;;35.45;20.20;;;;;;;;;;5016075;28;20056;-75
2023/02/15 01:43:11;;;;;;;38.33;20.38;;;;;;;;;;4993715;28;20141;-75
2023/02/15 01:45:39;;;;;;;38.28;21.08;;;;;;;;;;5019923;28;20045;-75
2023/02/15 01:48:23;;;;;;;38.63;21.30;;;;;;;;;;5017459;28;20519;-75
2023/02/15 01:50:55;;;;;;;37.35;20.08;;;;;;;;;;5004032;28;20058;-75
2023/02/15 01:53:23;;;;;;;33.13;19.92;;;;;;;;;;5016170;28;20065;-75
2023/02/15 01:55:57;;;;;;;32.50;20.17;;;;;;;;;;5017566;28;20061;-75
2023/02/15 01:58:25;;;;;;;35.97;21.33;;;;;;;;;;5003593;28;20501;-75
2023/02/15 02:00:52;;;;;;;36.20;21.20;;;;;;;;;;5024058;28;20061;-75
2023/02/15 02:03:24;;;;;;;36.38;20.70;;;;;;;;;;5021607;28;20449;-75
2023/02/15 02:05:50;;;;;;;35.40;20.67;;;;;;;;;;5003058;28;20137;-75
2023/02/15 02:08:17;;;;;;;32.78;20.23;;;;;;;;;;4984969;28;20132;-75
2023/02/15 02:10:44;;;;;;;34.95;19.55;;;;;;;;;;5009123;28;20100;-75
2023/02/15 02:13:11;;;;;;;34.92;19.25;;;;;;;;;;5021104;28;20421;-75
2023/02/15 02:15:43;;;;;;;33.65;18.95;;;;;;;;;;5002350;28;20506;-76
2023/02/15 02:18:31;;;;;;;30.50;17.77;;;;;;;;;;5018891;28;20079;-76
2023/02/15 02:21:21;;;;;;;33.63;18.17;;;;;;;;;;5020124;28;20049;-76
2023/02/15 02:24:16;;;;;;;31.27;20.13;;;;;;;;;;5004645;28;20057;-76
2023/02/15 02:27:11;;;;;;;31.48;18.65;;;;;;;;;;5018551;28;20389;-75
2023/02/15 02:29:52;;;;;;;35.95;19.13;;;;;;;;;;5022367;28;20103;-75
2023/02/15 02:32:58;;;;;;;32.85;17.73;;;;;;;;;;5015853;28;20054;-75
2023/02/15 02:35:39;;;;;;;30.98;18.50;;;;;;;;;;5017162;28;20072;-75
2023/02/15 02:38:16;;;;;;;32.78;18.98;;;;;;;;;;5000724;28;20053;-75
2023/02/15 02:41:08;;;;;;;35.92;20.95;;;;;;;;;;5015875;28;20065;-78
2023/02/15 02:43:43;;;;;;;33.75;19.60;;;;;;;;;;5017612;28;20054;-78
2023/02/15 02:46:34;;;;;;;32.60;19.85;;;;;;;;;;5018096;28;20053;-77
2023/02/15 02:49:01;;;;;;;35.97;19.38;;;;;;;;;;4987029;28;20108;-77
2023/02/15 02:51:28;;;;;;;37.65;20.27;;;;;;;;;;5017883;28;20053;-77
2023/02/15 02:53:56;;;;;;;37.35;20.10;;;;;;;;;;5016143;28;20057;-76
2023/02/15 02:56:44;;;;;;;37.15;20.25;;;;;;;;;;5000421;28;20053;-75
2023/02/15 02:59:24;;;;;;;32.65;19.08;;;;;;;;;;5014764;28;20058;-75
2023/02/15 03:01:54;;;;;;;34.20;18.83;;;;;;;;;;5019850;28;20050;-74
2023/02/15 03:04:27;;;;;;;30.73;19.38;;;;;;;;;;5004295;28;20599;-77
2023/02/15 03:07:00;;;;;;;32.88;19.55;;;;;;;;;;4999032;28;20058;-77
2023/02/15 03:09:41;;;;;;;32.47;18.73;;;;;;;;;;5004322;28;20513;-77
2023/02/15 03:12:19;;;;;;;32.08;19.35;;;;;;;;;;5020302;28;20858;-77
2023/02/15 03:15:09;;;;;;;35.80;19.35;;;;;;;;;;5000674;28;20084;-77
2023/02/15 03:17:43;;;;;;;30.95;18.70;;;;;;;;;;5016066;28;20259;-76
2023/02/15 03:20:26;;;;;;;29.52;17.95;;;;;;;;;;5000648;28;20057;-76
2023/02/15 03:22:59;;;;;;;31.55;19.65;;;;;;;;;;5016628;28;20065;-75
2023/02/15 03:25:30;;;;;;;31.20;17.80;;;;;;;;;;5019087;28;20626;-75
2023/02/15 03:28:03;;;;;;;30.50;19.23;;;;;;;;;;5014825;28;20053;-75
2023/02/15 03:30:29;;;;;;;;;;;;;;;;;;5001286;28;20513;-75
2023/02/15 03:32:56;;;;;;;33.97;19.35;;;;;;;;;;5014431;28;19929;-75
2023/02/15 03:35:24;;;;;;;32.70;19.90;;;;;;;;;;4999879;28;20041;-75
2023/02/15 03:38:02;;;;;;;34.85;19.60;;;;;;;;;;4997692;28;20057;-75
2023/02/15 03:43:21;;;;;;;32.25;18.98;;;;;;;;;;5018572;28;20054;-75
2023/02/15 03:45:55;;;;;;;33.03;19.42;;;;;;;;;;5016998;28;20052;-75
2023/02/15 03:48:25;;;;;;;32.78;17.92;;;;;;;;;;5003890;28;20058;-75
2023/02/15 03:53:40;;;;;;;34.83;18.75;;;;;;;;;;5025432;28;20058;-77
2023/02/15 03:56:06;;;;;;;34.42;21.40;;;;;;;;;;5001413;28;20049;-76
2023/02/15 04:04:21;;;;;;;32.50;19.85;;;;;;;;;;5019726;28;20051;-76
2023/02/15 04:06:51;;;;;;;39.08;21.35;;;;;;;;;;5017725;28;20107;-73
2023/02/15 04:12:03;;;;;;;68.15;19.27;;;;;;;;;;5021226;28;20044;-75
2023/02/15 04:17:15;;;;;;;61.10;17.98;;;;;;;;;;5022064;28;20068;-75
2023/02/15 04:25:13;;;;;;;70.22;17.98;;;;;;;;;;5019842;28;20513;-75
2023/02/15 04:27:48;;;;;;;103.85;19.67;;;;;;;;;;5018548;28;20136;-75
2023/02/15 04:30:16;;;;;;;57.80;18.55;;;;;;;;;;5016850;28;20029;-75
2023/02/15 04:32:43;;;;;;;142.23;20.25;;;;;;;;;;5016715;28;20057;-74
2023/02/15 04:35:11;;;;;;;75.55;17.98;;;;;;;;;;5004811;28;20132;-75
2023/02/15 04:37:38;;;;;;;119.65;21.05;;;;;;;;;;4994108;28;20049;-75
2023/02/15 04:40:06;;;;;;;64.75;18.08;;;;;;;;;;5019405;28;20496;-75
2023/02/15 04:42:33;;;;;;;38.63;17.75;;;;;;;;;;5001170;28;20046;-75
2023/02/15 04:45:00;;;;;;;44.22;18.52;;;;;;;;;;4992235;28;20060;-74
2023/02/15 04:47:27;;;;;;;53.78;18.67;;;;;;;;;;4995511;28;20682;-75
2023/02/15 04:49:53;;;;;;;42.17;17.90;;;;;;;;;;5017471;28;20501;-74
2023/02/15 04:52:23;;;;;;;35.88;18.80;;;;;;;;;;4998143;28;20077;-74
2023/02/15 04:54:50;;;;;;;37.90;18.25;;;;;;;;;;5015045;28;20057;-74
2023/02/15 04:57:17;;;;;;;45.22;19.17;;;;;;;;;;5015475;28;20045;-74
2023/02/15 04:59:43;;;;;;;85.10;20.80;;;;;;;;;;5017056;28;20038;-74
2023/02/15 05:02:10;;;;;;;35.40;18.15;;;;;;;;;;5014952;28;20045;-75
2023/02/15 05:04:37;;;;;;;45.67;18.52;;;;;;;;;;5010718;28;20049;-75
2023/02/15 05:07:04;;;;;;;49.00;17.27;;;;;;;;;;5015278;28;20053;-74
2023/02/15 05:09:31;;;;;;;63.63;18.23;;;;;;;;;;5012206;28;20128;-75
2023/02/15 05:11:57;;;;;;;53.80;17.63;;;;;;;;;;5015353;28;20424;-75
2023/02/15 05:14:28;;;;;;;41.72;17.90;;;;;;;;;;5016088;28;20064;-74
2023/02/15 05:16:55;;;;;;;34.25;18.05;;;;;;;;;;5020594;28;20054;-75
2023/02/15 05:19:24;;;;;;;37.03;19.10;;;;;;;;;;5022510;28;20104;-75
2023/02/15 05:21:51;;;;;;;47.47;20.17;;;;;;;;;;5017711;28;20060;-75
2023/02/15 05:29:56;;;;;;;36.85;21.00;;;;;;;;;;5022411;28;20085;-76
2023/02/15 05:32:23;;;;;;;37.90;22.15;;;;;;;;;;4994006;28;20041;-76
2023/02/15 05:34:50;;;;;;;36.58;20.67;;;;;;;;;;4996029;28;20420;-75
2023/02/15 05:37:16;;;;;;;38.50;19.98;;;;;;;;;;5003847;28;20046;-76
2023/02/15 05:39:43;;;;;;;40.28;19.08;;;;;;;;;;5000890;28;20054;-76
2023/02/15 05:42:10;;;;;;;31.77;18.98;;;;;;;;;;5019134;28;20655;-76
2023/02/15 05:44:37;;;;;;;42.33;19.20;;;;;;;;;;5017450;28;20063;-76
2023/02/15 05:47:06;;;;;;;35.17;21.13;;;;;;;;;;5017462;28;20053;-76
2023/02/15 05:49:34;;;;;;;216.02;32.85;;;;;;;;;;5033932;28;20129;-75
2023/02/15 05:52:01;;;;;;;79.47;21.45;;;;;;;;;;5016460;28;20054;-76
2023/02/15 05:54:28;;;;;;;62.67;17.98;;;;;;;;;;4989156;28;20057;-76
2023/02/15 05:56:54;;;;;;;82.35;18.33;;;;;;;;;;4999269;28;20057;-75
2023/02/15 05:59:21;;;;;;;128.02;20.27;;;;;;;;;;5021449;28;20053;-75
2023/02/15 06:01:48;;;;;;;82.05;17.55;;;;;;;;;;4999569;28;20064;-75
2023/02/15 06:04:15;;;;;;;37.83;17.27;;;;;;;;;;5018810;28;20057;-76
2023/02/15 06:06:41;;;;;;;72.28;19.65;;;;;;;;;;5015928;28;20519;-75
2023/02/15 06:09:10;;;;;;;60.22;20.02;;;;;;;;;;5002578;28;20056;-75
2023/02/15 06:11:37;;;;;;;55.47;19.00;;;;;;;;;;5018053;28;20501;-75
2023/02/15 06:14:04;;;;;;;46.55;19.92;;;;;;;;;;4987188;28;20058;-77
2023/02/15 06:16:31;;;;;;;35.70;19.75;;;;;;;;;;5001432;28;20064;-76
2023/02/15 06:18:59;;;;;;;41.08;18.13;;;;;;;;;;5020832;28;20065;-76
2023/02/15 06:21:25;;;;;;;75.68;20.60;;;;;;;;;;5017544;28;20092;-75
2023/02/15 06:23:52;;;;;;;39.08;18.38;;;;;;;;;;5020928;28;20555;-76
2023/02/15 06:26:19;;;;;;;38.20;18.42;;;;;;;;;;5021261;28;20072;-76
2023/02/15 06:28:46;;;;;;;75.07;18.25;;;;;;;;;;5019985;28;20062;-76
2023/02/15 06:31:12;;;;;;;34.42;17.20;;;;;;;;;;5021291;28;20416;-76
2023/02/15 06:33:39;;;;;;;33.90;17.77;;;;;;;;;;5016522;28;20508;-76
2023/02/15 06:36:07;;;;;;;29.25;16.45;;;;;;;;;;5019905;28;20054;-76
2023/02/15 06:38:33;;;;;;;33.13;18.17;;;;;;;;;;5001137;28;20046;-76
2023/02/15 06:41:00;;;;;;;24.48;16.30;;;;;;;;;;5018537;28;20052;-76
2023/02/15 06:43:27;;;;;;;33.40;17.38;;;;;;;;;;5015462;28;20072;-75
2023/02/15 06:45:54;;;;;;;26.38;16.73;;;;;;;;;;5019346;28;20075;-76
2023/02/15 06:48:20;;;;;;;26.67;17.25;;;;;;;;;;5015359;28;20144;-76
2023/02/15 06:50:48;;;;;;;29.17;16.90;;;;;;;;;;5000187;28;20064;-75
2023/02/15 06:53:15;;;;;;;33.50;17.70;;;;;;;;;;4999248;28;20506;-76
2023/02/15 06:55:42;;;;;;;32.42;16.25;;;;;;;;;;5016462;28;20057;-78
2023/02/15 06:58:09;;;;;;;28.67;17.35;;;;;;;;;;5015692;28;20053;-74
2023/02/15 07:00:36;;;;;;;28.42;17.10;;;;;;;;;;5016138;28;20067;-75
2023/02/15 07:03:03;;;;;;;40.92;17.58;;;;;;;;;;5015339;28;20053;-73
2023/02/15 07:05:33;;;;;;;31.48;17.88;;;;;;;;;;4999333;28;20057;-74
2023/02/15 07:08:00;;;;;;;36.90;17.65;;;;;;;;;;5011978;28;20058;-74
2023/02/15 07:10:27;;;;;;;40.78;17.90;;;;;;;;;;5019051;28;20045;-73
2023/02/15 07:12:54;;;;;;;39.42;18.00;;;;;;;;;;5020059;28;20046;-73
2023/02/15 07:15:21;;;;;;;62.22;17.60;;;;;;;;;;5016881;28;20053;-73
2023/02/15 07:17:48;;;;;;;28.38;15.88;;;;;;;;;;5013045;28;20056;-73
2023/02/15 07:20:21;;;;;;;69.07;17.33;;;;;;;;;;5015225;28;20765;-73
2023/02/15 07:22:48;;;;;;;30.17;16.00;;;;;;;;;;5002498;28;20059;-73
2023/02/15 07:25:15;;;;;;;42.42;14.90;;;;;;;;;;5013763;28;20866;-73
2023/02/15 07:27:43;;;;;;;35.78;15.82;;;;;;;;;;5017983;28;20057;-73
2023/02/15 07:30:15;;;;;;;40.90;18.13;;;;;;;;;;4992987;28;20063;-73
2023/02/15 07:35:31;;;;;;;42.08;17.73;;;;;;;;;;5014863;28;20636;-73
2023/02/15 07:37:57;;;;;;;26.45;16.27;;;;;;;;;;4998954;28;20047;-73
2023/02/15 07:40:24;;;;;;;28.98;16.27;;;;;;;;;;5019644;28;20057;-73
2023/02/15 07:42:56;;;;;;;30.02;17.05;;;;;;;;;;5005309;28;20049;-73
2023/02/15 07:45:22;;;;;;;34.08;17.90;;;;;;;;;;5016245;28;20053;-73
2023/02/15 07:47:49;;;;;;;33.63;16.75;;;;;;;;;;5015841;28;20539;-74
2023/02/15 07:50:16;;;;;;;34.63;16.50;;;;;;;;;;4998570;28;20054;-73
2023/02/15 07:52:44;;;;;;;35.40;16.17;;;;;;;;;;5014404;28;20046;-73
2023/02/15 07:55:12;;;;;;;25.48;15.23;;;;;;;;;;5014394;28;20057;-73
2023/02/15 07:57:46;;;;;;;34.83;14.38;;;;;;;;;;5008713;28;20050;-76
2023/02/15 08:00:17;;;;;;;28.73;14.90;;;;;;;;;;5005405;28;20121;-77
2023/02/15 08:02:48;;;;;;;72.03;16.08;;;;;;;;;;5018839;28;20444;-74
2023/02/15 08:05:18;;;;;;;54.50;15.40;;;;;;;;;;5003249;28;20081;-73
2023/02/15 08:07:44;;;;;;;25.00;13.60;;;;;;;;;;5005403;28;20548;-73
2023/02/15 08:11:24;;;;;;;25.33;13.82;;;;;;;;;;4985756;28;20042;-74
2023/02/15 08:12:59;;;;;;;33.00;14.25;;;;;;;;;;5015146;28;20041;-74
2023/02/15 08:15:25;;;;;;;30.67;14.27;;;;;;;;;;5002726;28;20468;-73
2023/02/15 08:17:53;;;;;;;22.63;15.60;;;;;;;;;;5015084;28;20154;-72
2023/02/15 08:20:20;;;;;;;22.15;15.90;;;;;;;;;;4995661;28;20116;-73
2023/02/15 08:22:48;;;;;;;28.77;15.73;;;;;;;;;;5017946;28;20049;-74
2023/02/15 08:25:15;;;;;;;27.13;15.55;;;;;;;;;;5013455;28;20054;-73
2023/02/15 08:27:42;;;;;;;31.30;15.80;;;;;;;;;;5012278;28;20606;-74
2023/02/15 08:30:10;;;;;;;32.95;14.30;;;;;;;;;;5012768;28;20052;-74
2023/02/15 08:32:37;;;;;;;55.35;15.52;;;;;;;;;;5015466;28;20556;-75
2023/02/15 08:35:04;;;;;;;40.47;16.38;;;;;;;;;;5014405;28;20055;-75
2023/02/15 08:37:31;;;;;;;43.78;16.50;;;;;;;;;;5000128;28;20111;-75
2023/02/15 08:39:58;;;;;;;56.35;16.52;;;;;;;;;;5017038;28;20057;-75
2023/02/15 08:42:25;;;;;;;39.30;17.85;;;;;;;;;;5015954;28;20771;-76
2023/02/15 08:44:52;;;;;;;62.67;17.70;;;;;;;;;;5016081;28;20054;-74
2023/02/15 08:47:19;;;;;;;40.03;17.77;;;;;;;;;;5013162;28;20062;-74
2023/02/15 08:49:46;;;;;;;41.55;16.45;;;;;;;;;;5020192;28;20064;-74
2023/02/15 08:52:12;;;;;;;86.20;18.25;;;;;;;;;;5019004;28;20141;-74
2023/02/15 08:54:39;;;;;;;57.25;16.80;;;;;;;;;;5002364;28;20062;-75
2023/02/15 08:57:06;;;;;;;78.15;18.52;;;;;;;;;;5026300;28;20058;-74
2023/02/15 08:59:33;;;;;;;58.08;15.82;;;;;;;;;;5003529;28;20050;-75
2023/02/15 09:02:00;;;;;;;83.03;17.15;;;;;;;;;;5018327;28;20050;-74
2023/02/15 09:04:27;;;;;;;63.22;18.17;;;;;;;;;;5004495;28;20409;-74
2023/02/15 09:06:54;;;;;;;39.28;16.45;;;;;;;;;;5020541;28;20055;-75
2023/02/15 09:09:21;;;;;;;51.00;17.35;;;;;;;;;;5014086;28;20132;-75
2023/02/15 09:11:50;;;;;;;33.45;16.40;;;;;;;;;;5022572;28;20129;-75
2023/02/15 09:14:25;;;;;;;25.85;14.80;;;;;;;;;;4993723;28;20057;-75
2023/02/15 09:16:52;;;;;;;63.40;13.70;;;;;;;;;;5003992;28;20069;-75
2023/02/15 09:19:21;;;;;;;30.70;15.25;;;;;;;;;;5002597;28;20049;-75
2023/02/15 09:21:49;;;;;;;33.47;14.10;;;;;;;;;;5003238;28;20481;-75
2023/02/15 09:24:16;;;;;;;56.45;14.90;;;;;;;;;;4996421;28;20136;-75
2023/02/15 09:26:45;;;;;;;21.55;14.98;;;;;;;;;;5001114;28;20054;-75
2023/02/15 09:29:13;;;;;;;31.30;14.52;;;;;;;;;;5019586;28;20137;-75
2023/02/15 09:31:44;;;;;;;44.08;17.08;;;;;;;;;;5024804;28;20068;-75
2023/02/15 09:34:13;;;;;;;22.55;15.23;;;;;;;;;;5007053;28;20053;-75
2023/02/15 09:36:40;;;;;;;28.73;15.95;;;;;;;;;;5018756;28;20349;-75
2023/02/15 09:39:09;;;;;;;26.75;14.20;;;;;;;;;;5017919;28;20127;-75
2023/02/15 09:42:06;;;;;;;28.35;15.07;;;;;;;;;;5001854;28;20053;-75
2023/02/15 09:44:43;;;;;;;41.38;14.98;;;;;;;;;;5005339;28;20057;-75
2023/02/15 09:47:38;;;;;;;55.05;15.60;;;;;;;;;;5013726;28;20065;-75
2023/02/15 09:50:30;;;;;;;27.10;15.63;;;;;;;;;;5030692;28;20060;-76
2023/02/15 09:52:59;;;;;;;26.33;16.05;;;;;;;;;;5014124;28;20050;-75
2023/02/15 09:55:51;;;;;;;25.73;15.85;;;;;;;;;;5030829;28;20102;-75
2023/02/15 09:58:18;;;;;;;25.58;14.95;;;;;;;;;;5030078;28;20136;-75
2023/02/15 10:00:54;;;;;;;21.60;14.45;;;;;;;;;;5029352;28;20064;-75
2023/02/15 10:03:30;;;;;;;24.00;15.05;;;;;;;;;;5014451;28;20072;-75
2023/02/15 10:05:57;;;;;;;22.60;15.30;;;;;;;;;;5032175;28;20057;-75
2023/02/15 10:08:42;;;;;;;28.23;15.70;;;;;;;;;;5030475;28;20049;-75
2023/02/15 10:14:37;;;;;;;27.85;17.08;;;;;;;;;;5030031;28;20053;-75
2023/02/15 10:17:17;;;;;;;27.48;15.60;;;;;;;;;;5030418;28;20491;-75
2023/02/15 10:20:04;;;;;;;22.52;15.48;;;;;;;;;;5030313;28;20056;-75
2023/02/15 10:22:45;;;;;;;23.25;15.35;;;;;;;;;;5016314;28;20060;-75
2023/02/15 10:25:21;;;;;;;23.90;16.02;;;;;;;;;;5014830;28;20501;-75
2023/02/15 10:27:49;;;;;;;25.10;17.25;;;;;;;;;;5029817;28;20398;-75
2023/02/15 10:30:19;;;;;;;24.95;16.92;;;;;;;;;;5013471;28;20476;-75
2023/02/15 10:33:04;;;;;;;22.27;16.40;;;;;;;;;;5013150;28;20079;-75
2023/02/15 10:36:01;;;;;;;27.05;17.50;;;;;;;;;;5029798;28;20233;-75
2023/02/15 10:38:41;;;;;;;27.10;17.98;;;;;;;;;;5015507;28;20060;-75
2023/02/15 10:41:14;;;;;;;26.60;17.20;;;;;;;;;;5012780;28;20046;-75
2023/02/15 10:43:55;;;;;;;27.27;17.20;;;;;;;;;;5035977;28;20049;-75
2023/02/15 10:46:51;;;;;;;22.52;17.15;;;;;;;;;;5030002;28;20557;-75
2023/02/15 10:49:37;;;;;;;24.85;17.45;;;;;;;;;;5012950;28;20054;-75
2023/02/15 10:52:33;;;;;;;23.85;17.73;;;;;;;;;;5029677;28;20413;-75
2023/02/15 10:55:22;;;;;;;22.73;16.42;;;;;;;;;;5029120;28;20267;-75
2023/02/15 10:58:07;;;;;;;26.02;17.38;;;;;;;;;;5012812;28;20065;-75
2023/02/15 11:01:00;;;;;;;22.02;16.38;;;;;;;;;;5013193;28;20053;-75
2023/02/15 11:04:01;;;;;;;25.77;17.05;;;;;;;;;;5016333;28;20049;-75
2023/02/15 11:06:28;;;;;;;25.15;17.20;;;;;;;;;;5014349;28;20049;-75
2023/02/15 11:09:04;;;;;;;24.58;16.40;;;;;;;;;;5028819;28;20144;-75
2023/02/15 11:11:34;;;;;;;25.48;16.38;;;;;;;;;;5012791;28;20064;-75
2023/02/15 11:14:27;;;;;;;21.08;16.40;;;;;;;;;;5013131;28;20363;-75
2023/02/15 11:16:57;;;;;;;22.75;16.35;;;;;;;;;;5001206;28;20092;-75
2023/02/15 11:19:26;;;;;;;25.63;18.27;;;;;;;;;;5012631;28;20494;-75
2023/02/15 11:21:57;;;;;;;21.38;15.90;;;;;;;;;;5012704;28;20057;-75
2023/02/15 11:24:28;;;;;;;22.02;15.85;;;;;;;;;;5012554;28;20060;-75
2023/02/15 11:27:02;;;;;;;23.55;15.85;;;;;;;;;;5028797;28;20139;-75
2023/02/15 11:29:33;;;;;;;27.48;17.27;;;;;;;;;;5012605;28;20053;-74
2023/02/15 11:32:18;;;;;;;25.75;18.17;;;;;;;;;;5028500;28;20489;-77
2023/02/15 11:35:14;;;;;;;27.75;16.95;;;;;;;;;;5028542;28;20053;-75
2023/02/15 11:37:48;;;;;;;24.80;17.58;;;;;;;;;;5028298;28;20063;-76
2023/02/15 11:40:18;;;;;;;22.50;16.30;;;;;;;;;;4996282;28;20494;-76
2023/02/15 11:42:49;;;;;;;24.13;16.50;;;;;;;;;;5012795;28;20163;-75
2023/02/15 11:45:23;;;;;;;22.65;16.73;;;;;;;;;;5028254;28;20615;-75
2023/02/15 11:47:50;;;;;;;23.13;16.27;;;;;;;;;;5012213;28;20183;-74
2023/02/15 11:50:22;;;;;;;23.20;16.83;;;;;;;;;;5012139;28;20197;-75
2023/02/15 11:52:50;;;;;;;23.98;17.88;;;;;;;;;;5028722;28;20442;-75
2023/02/15 11:55:22;;;;;;;24.55;16.92;;;;;;;;;;5011707;28;20144;-75
2023/02/15 11:58:30;;;;;;;21.85;16.88;;;;;;;;;;5028070;28;20100;-75
2023/02/15 12:01:16;;;;;;;22.90;16.45;;;;;;;;;;5028031;28;20061;-75
2023/02/15 12:03:49;;;;;;;23.88;16.85;;;;;;;;;;5028282;28;20419;-75
2023/02/15 12:06:26;;;;;;;23.65;16.35;;;;;;;;;;5011805;28;20061;-75
2023/02/15 12:09:03;;;;;;;23.75;17.13;;;;;;;;;;5011723;28;20061;-75
2023/02/15 12:11:39;;;;;;;26.23;16.98;;;;;;;;;;5028236;28;20054;-75
2023/02/15 12:14:11;;;;;;;24.38;17.58;;;;;;;;;;5011987;28;20054;-75
2023/02/15 12:16:52;;;;;;;26.73;17.77;;;;;;;;;;5011915;28;20107;-75
2023/02/15 12:19:30;;;;;;;32.55;17.80;;;;;;;;;;5011691;28;20493;-76
2023/02/15 12:21:57;;;;;;;26.30;18.23;;;;;;;;;;5027829;28;20060;-75
2023/02/15 12:24:36;;;;;;;29.73;19.63;;;;;;;;;;5015141;28;20049;-75
2023/02/15 12:27:14;;;;;;;25.98;18.20;;;;;;;;;;5031850;28;20425;-75
2023/02/15 12:29:43;;;;;;;28.90;19.38;;;;;;;;;;4999957;28;20068;-75
2023/02/15 12:32:11;;;;;;;26.77;19.25;;;;;;;;;;5015861;28;20072;-75
2023/02/15 12:34:41;;;;;;;24.77;18.35;;;;;;;;;;5032661;28;20045;-75
2023/02/15 12:37:17;;;;;;;31.30;19.52;;;;;;;;;;4999598;28;20410;-75
2023/02/15 12:39:58;;;;;;;23.98;17.08;;;;;;;;;;5014821;28;20084;-75
2023/02/15 12:42:26;;;;;;;30.27;16.85;;;;;;;;;;5032180;28;20061;-75
2023/02/15 12:44:56;;;;;;;25.75;17.30;;;;;;;;;;5015089;28;20053;-75
2023/02/15 12:47:26;;;;;;;27.27;16.08;;;;;;;;;;5014682;28;20140;-76
2023/02/15 12:50:16;;;;;;;24.55;16.42;;;;;;;;;;4997350;28;20070;-75
2023/02/15 12:52:49;;;;;;;24.92;18.48;;;;;;;;;;5020164;28;20517;-76
2023/02/15 12:55:25;;;;;;;22.63;16.27;;;;;;;;;;5003652;28;20054;-76
2023/02/15 12:58:14;;;;;;;25.48;18.30;;;;;;;;;;5018485;28;20060;-75
2023/02/15 13:00:40;;;;;;;27.20;16.70;;;;;;;;;;5023202;28;20057;-75
2023/02/15 13:03:16;;;;;;;22.50;16.85;;;;;;;;;;5026245;28;20056;-76
2023/02/15 13:05:44;;;;;;;22.92;15.63;;;;;;;;;;5023113;28;20085;-75
2023/02/15 13:08:12;;;;;;;22.80;16.88;;;;;;;;;;5001759;28;20054;-75
2023/02/15 13:10:58;;;;;;;26.13;16.52;;;;;;;;;;5017413;28;20560;-75
2023/02/15 13:13:28;;;;;;;20.85;15.75;;;;;;;;;;5019269;28;20049;-75
2023/02/15 13:16:01;;;;;;;21.33;16.50;;;;;;;;;;5000463;28;20327;-76
2023/02/15 13:18:34;;;;;;;21.38;15.68;;;;;;;;;;5005228;28;20046;-76
2023/02/15 13:21:11;;;;;;;21.48;16.08;;;;;;;;;;5018825;28;20052;-76
2023/02/15 13:23:39;;;;;;;19.67;15.30;;;;;;;;;;5018557;28;20069;-76
2023/02/15 13:26:11;;;;;;;21.00;15.75;;;;;;;;;;5018525;28;20624;-76
2023/02/15 13:28:41;;;;;;;19.30;15.57;;;;;;;;;;5001979;28;20124;-76
2023/02/15 13:31:13;;;;;;;20.38;14.98;;;;;;;;;;5004531;28;20049;-75
2023/02/15 13:33:42;;;;;;;23.63;17.00;;;;;;;;;;5001686;28;20133;-76
2023/02/15 13:36:39;;;;;;;17.88;14.82;;;;;;;;;;5018278;28;20052;-81
2023/02/15 13:39:17;;;;;;;16.67;13.82;;;;;;;;;;5006670;28;20058;-77
2023/02/15 13:41:59;;;;;;;21.15;14.57;;;;;;;;;;5019211;28;20504;-77
2023/02/15 13:45:01;;;;;;;21.13;14.77;;;;;;;;;;5018427;28;20517;-77
2023/02/15 13:47:39;;;;;;;17.83;14.95;;;;;;;;;;5016277;28;20053;-77
2023/02/15 13:50:28;;;;;;;19.00;14.70;;;;;;;;;;5000901;28;20576;-77
2023/02/15 13:53:24;;;;;;;19.50;14.35;;;;;;;;;;5018627;28;20055;-77
2023/02/15 13:55:57;;;;;;;17.42;13.73;;;;;;;;;;5000799;28;20063;-77
2023/02/15 13:58:36;;;;;;;18.83;14.90;;;;;;;;;;5014581;28;20092;-76
2023/02/15 14:01:10;;;;;;;20.23;14.60;;;;;;;;;;5019383;28;20061;-77
2023/02/15 14:03:44;;;;;;;16.70;13.07;;;;;;;;;;5016652;28;20088;-78
2023/02/15 14:06:29;;;;;;;16.83;13.30;;;;;;;;;;5006175;28;20056;-77
2023/02/15 14:09:13;;;;;;;18.13;13.75;;;;;;;;;;5018939;28;20509;-75
2023/02/15 14:11:49;;;;;;;18.65;14.27;;;;;;;;;;5019415;28;20138;-76
2023/02/15 14:14:22;;;;;;;18.52;14.10;;;;;;;;;;5020699;28;20701;-77
2023/02/15 14:16:53;;;;;;;19.17;14.73;;;;;;;;;;5014956;28;20552;-77
2023/02/15 14:19:37;;;;;;;;;;;;;;;;;;5005263;28;20057;-74
2023/02/15 14:22:13;;;;;;;17.85;13.20;;;;;;;;;;5001286;28;20040;-75
2023/02/15 14:24:51;;;;;;;18.40;13.60;;;;;;;;;;5022242;28;20058;-75
2023/02/15 14:27:42;;;;;;;19.20;13.57;;;;;;;;;;5023615;28;20056;-74
2023/02/15 14:30:18;;;;;;;22.13;14.77;;;;;;;;;;5022761;28;20089;-75
2023/02/15 14:32:48;;;;;;;22.65;14.13;;;;;;;;;;5018393;28;20473;-74
2023/02/15 14:35:17;;;;;;;21.52;14.10;;;;;;;;;;5003451;28;20050;-74
2023/02/15 14:38:04;;;;;;;20.02;14.15;;;;;;;;;;5010924;28;20192;-74
2023/02/15 14:41:02;;;;;;;21.15;14.10;;;;;;;;;;5021545;28;20540;-74
2023/02/15 14:43:58;;;;;;;19.10;14.90;;;;;;;;;;5023357;28;20049;-74
2023/02/15 14:46:34;;;;;;;22.55;14.57;;;;;;;;;;5001458;28;20054;-75
2023/02/15 14:49:11;;;;;;;20.63;15.68;;;;;;;;;;5019150;28;20091;-75
2023/02/15 14:51:47;;;;;;;22.45;14.82;;;;;;;;;;5016092;28;20054;-75
2023/02/15 14:54:17;;;;;;;21.13;14.27;;;;;;;;;;5012077;28;20054;-76
2023/02/15 14:56:45;;;;;;;23.63;15.65;;;;;;;;;;5020375;28;20148;-75
2023/02/15 14:59:11;;;;;;;22.25;15.65;;;;;;;;;;5022119;28;20085;-75
2023/02/15 15:01:38;;;;;;;21.00;14.43;;;;;;;;;;5018805;28;20684;-76
2023/02/15 15:04:13;;;;;;;24.30;15.70;;;;;;;;;;4996617;28;20081;-75
2023/02/15 15:06:41;;;;;;;20.95;14.63;;;;;;;;;;5019232;28;20064;-75
2023/02/15 15:09:30;;;;;;;23.23;15.70;;;;;;;;;;5020667;28;20060;-75
2023/02/15 15:12:24;;;;;;;23.38;15.10;;;;;;;;;;5009485;28;20073;-75
2023/02/15 15:14:53;;;;;;;23.58;15.70;;;;;;;;;;5015903;28;20053;-76
2023/02/15 15:17:37;;;;;;;19.13;14.40;;;;;;;;;;5019772;28;20328;-75
2023/02/15 15:20:07;;;;;;;29.13;16.75;;;;;;;;;;5015581;28;20056;-75
2023/02/15 15:22:35;;;;;;;23.77;15.57;;;;;;;;;;5013697;28;20060;-75
2023/02/15 15:25:03;;;;;;;20.83;14.70;;;;;;;;;;5015529;28;20056;-75